sensor_id;sensor_type;location;lat;lon;timestamp;pressure;altitude;pressure_sealevel;temperature;humidity
62789;BME280;66401;42.016;21.454;2023-06-04T00:00:25;98373.03;;;17.95;83.03
62789;BME280;66401;42.016;21.454;2023-06-04T00:02:51;98328.84;;;17.57;83.93
62789;BME280;66401;42.016;21.454;2023-06-04T00:05:16;98359.03;;;17.78;83.38
62789;BME280;66401;42.016;21.454;2023-06-04T00:07:42;98351.56;;;17.75;83.80
62789;BME280;66401;42.016;21.454;2023-06-04T00:10:08;98348.00;;;17.81;82.85
62789;BME280;66401;42.016;21.454;2023-06-04T00:12:34;98344.19;;;17.89;82.08
62789;BME280;66401;42.016;21.454;2023-06-04T00:14:59;98356.28;;;18.01;81.70
62789;BME280;66401;42.016;21.454;2023-06-04T00:17:25;98353.84;;;17.83;83.43
62789;BME280;66401;42.016;21.454;2023-06-04T00:19:50;98368.75;;;17.78;83.80
62789;BME280;66401;42.016;21.454;2023-06-04T00:22:16;98363.69;;;17.48;85.80
62789;BME280;66401;42.016;21.454;2023-06-04T00:24:41;98352.56;;;17.45;84.75
62789;BME280;66401;42.016;21.454;2023-06-04T00:27:09;98371.16;;;17.39;85.57
62789;BME280;66401;42.016;21.454;2023-06-04T00:29:35;98371.06;;;17.22;86.44
62789;BME280;66401;42.016;21.454;2023-06-04T00:32:02;98359.88;;;17.03;86.94
62789;BME280;66401;42.016;21.454;2023-06-04T00:34:27;98364.97;;;17.33;85.12
62789;BME280;66401;42.016;21.454;2023-06-04T00:36:53;98333.72;;;17.25;85.30
62789;BME280;66401;42.016;21.454;2023-06-04T00:39:18;98375.06;;;17.65;83.41
62789;BME280;66401;42.016;21.454;2023-06-04T00:41:44;98368.91;;;17.71;83.19
62789;BME280;66401;42.016;21.454;2023-06-04T00:44:09;98330.47;;;17.46;81.79
62789;BME280;66401;42.016;21.454;2023-06-04T00:46:37;98329.16;;;17.32;83.92
62789;BME280;66401;42.016;21.454;2023-06-04T00:49:04;98362.28;;;17.57;84.49
62789;BME280;66401;42.016;21.454;2023-06-04T00:51:31;98370.25;;;17.62;83.77
62789;BME280;66401;42.016;21.454;2023-06-04T00:53:58;98337.81;;;17.44;83.40
62789;BME280;66401;42.016;21.454;2023-06-04T00:56:23;98370.94;;;17.69;83.12
62789;BME280;66401;42.016;21.454;2023-06-04T00:58:49;98362.16;;;17.52;83.89
62789;BME280;66401;42.016;21.454;2023-06-04T01:01:22;98337.75;;;17.16;84.72
62789;BME280;66401;42.016;21.454;2023-06-04T01:03:52;98339.47;;;17.22;84.70
62789;BME280;66401;42.016;21.454;2023-06-04T01:09:00;98369.97;;;17.46;84.28
62789;BME280;66401;42.016;21.454;2023-06-04T01:11:39;98371.00;;;17.45;84.41
62789;BME280;66401;42.016;21.454;2023-06-04T01:14:08;98369.88;;;17.41;84.44
62789;BME280;66401;42.016;21.454;2023-06-04T01:16:49;98371.34;;;17.49;83.86
62789;BME280;66401;42.016;21.454;2023-06-04T01:22:03;98355.75;;;16.96;85.42
62789;BME280;66401;42.016;21.454;2023-06-04T01:24:31;98375.53;;;17.22;85.68
62789;BME280;66401;42.016;21.454;2023-06-04T01:27:02;98374.81;;;17.26;85.58
62789;BME280;66401;42.016;21.454;2023-06-04T01:29:29;98361.22;;;17.29;84.64
62789;BME280;66401;42.016;21.454;2023-06-04T01:31:55;98355.94;;;17.29;84.20
62789;BME280;66401;42.016;21.454;2023-06-04T01:34:21;98365.00;;;17.22;85.44
62789;BME280;66401;42.016;21.454;2023-06-04T01:36:47;98378.25;;;17.27;85.02
62789;BME280;66401;42.016;21.454;2023-06-04T01:39:12;98344.84;;;17.15;84.01
62789;BME280;66401;42.016;21.454;2023-06-04T01:41:38;98312.19;;;16.76;85.10
62789;BME280;66401;42.016;21.454;2023-06-04T01:44:03;98370.59;;;17.25;84.46
62789;BME280;66401;42.016;21.454;2023-06-04T01:46:29;98360.53;;;17.22;83.86
62789;BME280;66401;42.016;21.454;2023-06-04T01:48:54;98336.44;;;17.02;84.14
62789;BME280;66401;42.016;21.454;2023-06-04T01:51:20;98357.34;;;17.20;83.82
62789;BME280;66401;42.016;21.454;2023-06-04T01:53:45;98344.03;;;17.27;83.11
62789;BME280;66401;42.016;21.454;2023-06-04T01:56:11;98347.69;;;17.37;81.47
62789;BME280;66401;42.016;21.454;2023-06-04T01:58:38;98375.66;;;17.55;81.30
62789;BME280;66401;42.016;21.454;2023-06-04T02:01:03;98366.63;;;17.51;80.80
62789;BME280;66401;42.016;21.454;2023-06-04T02:03:30;98365.84;;;17.51;80.53
62789;BME280;66401;42.016;21.454;2023-06-04T02:06:03;98388.50;;;17.52;81.41
62789;BME280;66401;42.016;21.454;2023-06-04T02:08:29;98369.19;;;17.34;82.25
62789;BME280;66401;42.016;21.454;2023-06-04T02:10:55;98336.63;;;17.12;82.33
62789;BME280;66401;42.016;21.454;2023-06-04T02:13:21;98361.44;;;17.16;83.70
62789;BME280;66401;42.016;21.454;2023-06-04T02:15:47;98336.22;;;16.92;84.05
62789;BME280;66401;42.016;21.454;2023-06-04T02:18:19;98388.22;;;17.25;84.08
62789;BME280;66401;42.016;21.454;2023-06-04T02:20:50;98377.50;;;17.03;85.02
62789;BME280;66401;42.016;21.454;2023-06-04T02:23:17;98373.13;;;17.20;84.13
62789;BME280;66401;42.016;21.454;2023-06-04T02:25:44;98380.78;;;17.22;83.06
62789;BME280;66401;42.016;21.454;2023-06-04T02:28:13;98402.16;;;17.49;81.50
62789;BME280;66401;42.016;21.454;2023-06-04T02:30:39;98391.25;;;17.45;81.18
62789;BME280;66401;42.016;21.454;2023-06-04T02:33:05;98381.78;;;17.32;81.46
62789;BME280;66401;42.016;21.454;2023-06-04T02:35:31;98397.69;;;17.49;81.10
62789;BME280;66401;42.016;21.454;2023-06-04T02:37:57;98410.69;;;17.56;81.32
62789;BME280;66401;42.016;21.454;2023-06-04T02:40:26;98395.06;;;17.37;82.12
62789;BME280;66401;42.016;21.454;2023-06-04T02:42:55;98421.06;;;17.22;83.86
62789;BME280;66401;42.016;21.454;2023-06-04T02:45:22;98383.75;;;16.67;86.01
62789;BME280;66401;42.016;21.454;2023-06-04T02:47:48;98400.72;;;16.29;88.63
62789;BME280;66401;42.016;21.454;2023-06-04T02:50:14;98414.22;;;16.33;89.39
62789;BME280;66401;42.016;21.454;2023-06-04T02:52:44;98384.00;;;16.12;88.81
62789;BME280;66401;42.016;21.454;2023-06-04T02:55:09;98387.78;;;15.86;91.04
62789;BME280;66401;42.016;21.454;2023-06-04T02:57:38;98431.31;;;16.12;91.21
62789;BME280;66401;42.016;21.454;2023-06-04T03:00:06;98389.56;;;15.73;92.08
62789;BME280;66401;42.016;21.454;2023-06-04T03:02:46;98420.38;;;16.26;90.38
62789;BME280;66401;42.016;21.454;2023-06-04T03:05:14;98436.06;;;16.03;91.87
62789;BME280;66401;42.016;21.454;2023-06-04T03:07:41;98437.47;;;16.17;91.33
62789;BME280;66401;42.016;21.454;2023-06-04T03:10:09;98421.38;;;15.84;92.99
62789;BME280;66401;42.016;21.454;2023-06-04T03:12:35;98402.75;;;15.85;92.40
62789;BME280;66401;42.016;21.454;2023-06-04T03:15:01;98410.25;;;15.82;92.66
62789;BME280;66401;42.016;21.454;2023-06-04T03:17:27;98441.22;;;16.10;92.17
62789;BME280;66401;42.016;21.454;2023-06-04T03:19:53;98412.56;;;15.90;92.50
62789;BME280;66401;42.016;21.454;2023-06-04T03:22:23;98409.81;;;16.15;91.48
62789;BME280;66401;42.016;21.454;2023-06-04T03:24:49;98437.56;;;16.41;90.72
62789;BME280;66401;42.016;21.454;2023-06-04T03:27:14;98434.88;;;16.29;91.24
62789;BME280;66401;42.016;21.454;2023-06-04T03:29:40;98441.72;;;16.60;89.49
62789;BME280;66401;42.016;21.454;2023-06-04T03:32:06;98415.44;;;16.60;88.24
62789;BME280;66401;42.016;21.454;2023-06-04T03:34:32;98421.06;;;16.87;86.73
62789;BME280;66401;42.016;21.454;2023-06-04T03:36:57;98412.38;;;16.86;86.54
62789;BME280;66401;42.016;21.454;2023-06-04T03:39:23;98441.91;;;17.12;85.14
62789;BME280;66401;42.016;21.454;2023-06-04T03:41:49;98435.13;;;17.16;84.82
62789;BME280;66401;42.016;21.454;2023-06-04T03:44:16;98445.09;;;17.26;84.69
62789;BME280;66401;42.016;21.454;2023-06-04T03:46:42;98413.44;;;17.09;83.95
62789;BME280;66401;42.016;21.454;2023-06-04T03:49:12;98436.16;;;17.27;83.92
62789;BME280;66401;42.016;21.454;2023-06-04T03:51:38;98410.69;;;16.80;85.45
62789;BME280;66401;42.016;21.454;2023-06-04T03:54:04;98448.31;;;16.93;87.40
62789;BME280;66401;42.016;21.454;2023-06-04T03:56:31;98450.13;;;17.04;86.19
62789;BME280;66401;42.016;21.454;2023-06-04T03:58:57;98451.63;;;17.23;84.84
62789;BME280;66401;42.016;21.454;2023-06-04T04:01:23;98414.91;;;17.05;84.53
62789;BME280;66401;42.016;21.454;2023-06-04T04:03:49;98486.06;;;17.57;84.04
62789;BME280;66401;42.016;21.454;2023-06-04T04:06:16;98487.88;;;17.68;82.73
62789;BME280;66401;42.016;21.454;2023-06-04T04:08:42;98468.03;;;17.65;82.13
62789;BME280;66401;42.016;21.454;2023-06-04T04:11:12;98469.19;;;17.81;82.35
62789;BME280;66401;42.016;21.454;2023-06-04T04:13:38;98478.34;;;17.90;82.70
62789;BME280;66401;42.016;21.454;2023-06-04T04:16:03;98451.47;;;17.77;82.78
62789;BME280;66401;42.016;21.454;2023-06-04T04:18:35;98478.13;;;17.80;83.01
62789;BME280;66401;42.016;21.454;2023-06-04T04:21:02;98470.31;;;17.85;81.60
62789;BME280;66401;42.016;21.454;2023-06-04T04:23:28;98471.22;;;17.91;82.58
62789;BME280;66401;42.016;21.454;2023-06-04T04:25:54;98455.47;;;17.79;83.26
62789;BME280;66401;42.016;21.454;2023-06-04T04:28:22;98458.19;;;17.84;81.67
62789;BME280;66401;42.016;21.454;2023-06-04T04:30:47;98493.78;;;17.98;82.12
62789;BME280;66401;42.016;21.454;2023-06-04T04:33:14;98468.72;;;17.84;82.96
62789;BME280;66401;42.016;21.454;2023-06-04T04:35:44;98500.53;;;17.94;82.87
62789;BME280;66401;42.016;21.454;2023-06-04T04:38:10;98496.19;;;18.00;82.55
62789;BME280;66401;42.016;21.454;2023-06-04T04:40:36;98499.25;;;18.09;81.08
62789;BME280;66401;42.016;21.454;2023-06-04T04:43:02;98484.47;;;18.08;80.71
62789;BME280;66401;42.016;21.454;2023-06-04T04:45:28;98462.53;;;17.90;80.16
62789;BME280;66401;42.016;21.454;2023-06-04T04:47:53;98468.47;;;17.97;80.49
62789;BME280;66401;42.016;21.454;2023-06-04T04:50:19;98477.75;;;18.00;80.88
62789;BME280;66401;42.016;21.454;2023-06-04T04:52:44;98482.69;;;17.96;80.24
62789;BME280;66401;42.016;21.454;2023-06-04T04:55:10;98490.56;;;18.08;79.45
62789;BME280;66401;42.016;21.454;2023-06-04T04:57:37;98500.13;;;18.14;78.91
62789;BME280;66401;42.016;21.454;2023-06-04T05:00:03;98470.53;;;17.95;79.83
62789;BME280;66401;42.016;21.454;2023-06-04T05:02:31;98463.56;;;17.89;79.66
62789;BME280;66401;42.016;21.454;2023-06-04T05:04:56;98491.16;;;17.98;81.92
62789;BME280;66401;42.016;21.454;2023-06-04T05:07:22;98475.53;;;18.09;80.14
62789;BME280;66401;42.016;21.454;2023-06-04T05:09:48;98498.31;;;18.15;80.18
62789;BME280;66401;42.016;21.454;2023-06-04T05:12:14;98490.13;;;18.28;79.44
62789;BME280;66401;42.016;21.454;2023-06-04T05:14:40;98501.97;;;18.25;80.97
62789;BME280;66401;42.016;21.454;2023-06-04T05:17:07;98479.00;;;17.97;82.12
62789;BME280;66401;42.016;21.454;2023-06-04T05:19:34;98483.75;;;18.24;79.67
62789;BME280;66401;42.016;21.454;2023-06-04T05:22:00;98522.25;;;18.53;79.25
62789;BME280;66401;42.016;21.454;2023-06-04T05:24:28;98511.22;;;18.56;79.05
62789;BME280;66401;42.016;21.454;2023-06-04T05:26:55;98519.66;;;18.70;78.76
62789;BME280;66401;42.016;21.454;2023-06-04T05:29:22;98512.72;;;18.81;78.18
62789;BME280;66401;42.016;21.454;2023-06-04T05:31:47;98493.50;;;18.69;77.32
62789;BME280;66401;42.016;21.454;2023-06-04T05:34:13;98536.47;;;18.81;79.27
62789;BME280;66401;42.016;21.454;2023-06-04T05:36:42;98468.56;;;18.02;78.71
62789;BME280;66401;42.016;21.454;2023-06-04T05:39:09;98528.16;;;18.32;80.23
62789;BME280;66401;42.016;21.454;2023-06-04T05:41:35;98510.78;;;18.48;78.25
62789;BME280;66401;42.016;21.454;2023-06-04T05:44:01;98526.09;;;18.06;81.22
62789;BME280;66401;42.016;21.454;2023-06-04T05:46:27;98491.91;;;18.11;80.57
62789;BME280;66401;42.016;21.454;2023-06-04T05:48:52;98513.56;;;18.41;78.62
62789;BME280;66401;42.016;21.454;2023-06-04T05:51:19;98503.97;;;18.35;79.11
62789;BME280;66401;42.016;21.454;2023-06-04T05:53:44;98542.22;;;18.78;76.67
62789;BME280;66401;42.016;21.454;2023-06-04T05:56:10;98483.47;;;17.97;77.29
62789;BME280;66401;42.016;21.454;2023-06-04T05:58:36;98475.66;;;18.02;77.40
62789;BME280;66401;42.016;21.454;2023-06-04T06:01:02;98510.56;;;18.49;76.93
62789;BME280;66401;42.016;21.454;2023-06-04T06:03:28;98507.25;;;18.71;77.12
62789;BME280;66401;42.016;21.454;2023-06-04T06:05:54;98490.75;;;18.92;75.41
62789;BME280;66401;42.016;21.454;2023-06-04T06:08:20;98534.66;;;19.32;76.25
62789;BME280;66401;42.016;21.454;2023-06-04T06:10:46;98540.34;;;19.40;74.46
62789;BME280;66401;42.016;21.454;2023-06-04T06:13:12;98533.41;;;19.39;74.83
62789;BME280;66401;42.016;21.454;2023-06-04T06:15:37;98529.09;;;19.50;74.90
62789;BME280;66401;42.016;21.454;2023-06-04T06:18:03;98540.88;;;19.26;73.67
62789;BME280;66401;42.016;21.454;2023-06-04T06:20:29;98554.09;;;19.59;72.94
62789;BME280;66401;42.016;21.454;2023-06-04T06:22:55;98558.53;;;19.76;73.00
62789;BME280;66401;42.016;21.454;2023-06-04T06:25:20;98542.38;;;19.72;74.33
62789;BME280;66401;42.016;21.454;2023-06-04T06:27:46;98542.91;;;19.91;72.80
62789;BME280;66401;42.016;21.454;2023-06-04T06:30:13;98555.88;;;20.14;72.45
62789;BME280;66401;42.016;21.454;2023-06-04T06:32:39;98549.47;;;20.10;72.45
62789;BME280;66401;42.016;21.454;2023-06-04T06:35:13;98527.78;;;20.08;72.17
62789;BME280;66401;42.016;21.454;2023-06-04T06:37:39;98555.75;;;20.48;70.26
62789;BME280;66401;42.016;21.454;2023-06-04T06:40:08;98548.66;;;20.53;70.09
62789;BME280;66401;42.016;21.454;2023-06-04T06:42:34;98555.47;;;20.71;69.08
62789;BME280;66401;42.016;21.454;2023-06-04T06:44:59;98556.44;;;20.65;70.92
62789;BME280;66401;42.016;21.454;2023-06-04T06:47:25;98568.75;;;20.76;69.68
62789;BME280;66401;42.016;21.454;2023-06-04T06:49:50;98530.03;;;20.21;69.90
62789;BME280;66401;42.016;21.454;2023-06-04T06:52:16;98542.19;;;20.66;69.44
62789;BME280;66401;42.016;21.454;2023-06-04T06:54:45;98567.72;;;20.82;69.36
62789;BME280;66401;42.016;21.454;2023-06-04T06:57:11;98556.69;;;20.91;68.81
62789;BME280;66401;42.016;21.454;2023-06-04T06:59:37;98551.47;;;20.96;68.02
62789;BME280;66401;42.016;21.454;2023-06-04T07:02:03;98543.06;;;21.04;67.69
62789;BME280;66401;42.016;21.454;2023-06-04T07:04:29;98568.50;;;21.37;67.29
62789;BME280;66401;42.016;21.454;2023-06-04T07:06:54;98517.53;;;21.25;65.65
62789;BME280;66401;42.016;21.454;2023-06-04T07:09:20;98568.09;;;21.55;65.17
62789;BME280;66401;42.016;21.454;2023-06-04T07:11:46;98529.41;;;21.22;64.95
62789;BME280;66401;42.016;21.454;2023-06-04T07:14:11;98549.69;;;21.38;65.71
62789;BME280;66401;42.016;21.454;2023-06-04T07:16:37;98561.06;;;21.76;67.25
62789;BME280;66401;42.016;21.454;2023-06-04T07:19:02;98537.25;;;21.86;64.11
62789;BME280;66401;42.016;21.454;2023-06-04T07:21:28;98576.16;;;22.23;64.04
62789;BME280;66401;42.016;21.454;2023-06-04T07:23:53;98554.91;;;22.13;65.38
62789;BME280;66401;42.016;21.454;2023-06-04T07:26:19;98579.44;;;22.55;61.24
62789;BME280;66401;42.016;21.454;2023-06-04T07:28:45;98545.25;;;21.96;61.08
62789;BME280;66401;42.016;21.454;2023-06-04T07:31:11;98577.53;;;22.31;61.24
62789;BME280;66401;42.016;21.454;2023-06-04T07:33:39;98571.94;;;22.37;60.45
62789;BME280;66401;42.016;21.454;2023-06-04T07:36:13;98594.31;;;22.51;59.65
62789;BME280;66401;42.016;21.454;2023-06-04T07:38:39;98589.47;;;22.33;59.90
62789;BME280;66401;42.016;21.454;2023-06-04T07:41:05;98589.38;;;22.13;62.42
62789;BME280;66401;42.016;21.454;2023-06-04T07:43:33;98569.28;;;22.27;61.59
62789;BME280;66401;42.016;21.454;2023-06-04T07:45:59;98588.72;;;22.43;60.42
62789;BME280;66401;42.016;21.454;2023-06-04T07:48:24;98577.91;;;21.60;61.01
62789;BME280;66401;42.016;21.454;2023-06-04T07:50:56;98589.47;;;21.86;61.69
62789;BME280;66401;42.016;21.454;2023-06-04T07:53:22;98558.66;;;22.22;61.08
62789;BME280;66401;42.016;21.454;2023-06-04T07:55:47;98569.72;;;22.09;61.39
62789;BME280;66401;42.016;21.454;2023-06-04T07:58:13;98568.28;;;22.43;61.49
62789;BME280;66401;42.016;21.454;2023-06-04T08:00:38;98590.06;;;22.50;59.54
62789;BME280;66401;42.016;21.454;2023-06-04T08:03:04;98571.53;;;22.81;59.17
62789;BME280;66401;42.016;21.454;2023-06-04T08:05:30;98577.19;;;22.12;60.47
62789;BME280;66401;42.016;21.454;2023-06-04T08:07:55;98588.44;;;21.45;61.92
62789;BME280;66401;42.016;21.454;2023-06-04T08:10:21;98592.53;;;21.30;63.15
62789;BME280;66401;42.016;21.454;2023-06-04T08:12:46;98597.44;;;21.86;62.96
62789;BME280;66401;42.016;21.454;2023-06-04T08:15:13;98591.56;;;22.26;62.30
62789;BME280;66401;42.016;21.454;2023-06-04T08:17:38;98596.94;;;22.46;63.47
62789;BME280;66401;42.016;21.454;2023-06-04T08:20:04;98596.44;;;22.54;61.06
62789;BME280;66401;42.016;21.454;2023-06-04T08:22:31;98595.38;;;22.55;60.86
62789;BME280;66401;42.016;21.454;2023-06-04T08:24:57;98578.56;;;22.24;62.30
62789;BME280;66401;42.016;21.454;2023-06-04T08:27:23;98589.97;;;22.25;59.96
62789;BME280;66401;42.016;21.454;2023-06-04T08:29:48;98590.63;;;21.58;61.80
62789;BME280;66401;42.016;21.454;2023-06-04T08:32:14;98594.25;;;21.89;61.55
62789;BME280;66401;42.016;21.454;2023-06-04T08:34:39;98589.78;;;22.52;61.15
62789;BME280;66401;42.016;21.454;2023-06-04T08:37:05;98589.59;;;22.79;59.11
62789;BME280;66401;42.016;21.454;2023-06-04T08:39:31;98577.69;;;22.97;58.60
62789;BME280;66401;42.016;21.454;2023-06-04T08:42:00;98588.06;;;23.08;60.06
62789;BME280;66401;42.016;21.454;2023-06-04T08:44:28;98576.91;;;23.22;57.99
62789;BME280;66401;42.016;21.454;2023-06-04T08:47:01;98572.50;;;22.44;58.93
62789;BME280;66401;42.016;21.454;2023-06-04T08:49:29;98581.88;;;22.77;58.70
62789;BME280;66401;42.016;21.454;2023-06-04T08:51:58;98573.19;;;23.12;60.35
62789;BME280;66401;42.016;21.454;2023-06-04T08:54:24;98583.81;;;23.63;59.27
62789;BME280;66401;42.016;21.454;2023-06-04T08:56:50;98581.13;;;23.58;58.46
62789;BME280;66401;42.016;21.454;2023-06-04T08:59:17;98589.41;;;23.36;57.54
62789;BME280;66401;42.016;21.454;2023-06-04T09:01:44;98593.38;;;23.29;59.04
62789;BME280;66401;42.016;21.454;2023-06-04T09:04:10;98583.00;;;23.02;59.15
62789;BME280;66401;42.016;21.454;2023-06-04T09:06:37;98579.03;;;22.89;60.94
62789;BME280;66401;42.016;21.454;2023-06-04T09:09:05;98582.22;;;22.91;58.81
62789;BME280;66401;42.016;21.454;2023-06-04T09:11:55;98598.16;;;23.42;58.50
62789;BME280;66401;42.016;21.454;2023-06-04T09:14:23;98555.09;;;23.14;58.33
62789;BME280;66401;42.016;21.454;2023-06-04T09:16:50;98589.13;;;23.18;58.16
62789;BME280;66401;42.016;21.454;2023-06-04T09:19:17;98576.13;;;23.11;57.62
62789;BME280;66401;42.016;21.454;2023-06-04T09:21:54;98596.56;;;23.31;57.97
62789;BME280;66401;42.016;21.454;2023-06-04T09:24:21;98598.69;;;23.08;57.77
62789;BME280;66401;42.016;21.454;2023-06-04T09:26:48;98593.09;;;23.25;57.63
62789;BME280;66401;42.016;21.454;2023-06-04T09:29:15;98599.75;;;23.53;57.25
62789;BME280;66401;42.016;21.454;2023-06-04T09:31:43;98599.75;;;23.33;57.80
62789;BME280;66401;42.016;21.454;2023-06-04T09:34:09;98604.53;;;23.41;57.32
62789;BME280;66401;42.016;21.454;2023-06-04T09:36:36;98583.56;;;23.19;56.10
62789;BME280;66401;42.016;21.454;2023-06-04T09:39:03;98583.28;;;23.36;57.16
62789;BME280;66401;42.016;21.454;2023-06-04T09:41:28;98596.81;;;23.70;57.58
62789;BME280;66401;42.016;21.454;2023-06-04T09:44:03;98595.25;;;23.69;55.60
62789;BME280;66401;42.016;21.454;2023-06-04T09:46:30;98590.44;;;23.76;56.80
62789;BME280;66401;42.016;21.454;2023-06-04T09:49:00;98593.34;;;23.85;55.26
62789;BME280;66401;42.016;21.454;2023-06-04T09:51:28;98577.16;;;23.25;57.61
62789;BME280;66401;42.016;21.454;2023-06-04T09:53:58;98597.34;;;23.01;56.77
62789;BME280;66401;42.016;21.454;2023-06-04T09:56:24;98584.34;;;23.55;56.42
62789;BME280;66401;42.016;21.454;2023-06-04T09:58:57;98596.59;;;22.27;58.04
62789;BME280;66401;42.016;21.454;2023-06-04T10:01:25;98595.09;;;22.57;56.94
62789;BME280;66401;42.016;21.454;2023-06-04T10:03:51;98578.06;;;22.38;57.78
62789;BME280;66401;42.016;21.454;2023-06-04T10:06:18;98587.00;;;23.14;57.15
62789;BME280;66401;42.016;21.454;2023-06-04T10:08:46;98586.44;;;23.58;56.87
62789;BME280;66401;42.016;21.454;2023-06-04T10:11:13;98581.66;;;23.76;55.93
62789;BME280;66401;42.016;21.454;2023-06-04T10:13:53;98585.31;;;24.05;55.08
62789;BME280;66401;42.016;21.454;2023-06-04T10:16:23;98577.78;;;24.33;55.72
62789;BME280;66401;42.016;21.454;2023-06-04T10:18:49;98575.47;;;24.60;55.47
62789;BME280;66401;42.016;21.454;2023-06-04T10:21:17;98578.91;;;24.01;55.25
62789;BME280;66401;42.016;21.454;2023-06-04T10:23:44;98587.53;;;23.11;57.19
62789;BME280;66401;42.016;21.454;2023-06-04T10:26:16;98550.28;;;23.52;55.76
62789;BME280;66401;42.016;21.454;2023-06-04T10:28:42;98567.28;;;23.87;50.86
62789;BME280;66401;42.016;21.454;2023-06-04T10:31:11;98579.28;;;24.49;52.84
62789;BME280;66401;42.016;21.454;2023-06-04T10:33:39;98559.94;;;24.33;50.65
62789;BME280;66401;42.016;21.454;2023-06-04T10:36:19;98585.09;;;24.56;50.72
62789;BME280;66401;42.016;21.454;2023-06-04T10:38:53;98574.19;;;24.97;51.19
62789;BME280;66401;42.016;21.454;2023-06-04T10:41:20;98563.31;;;25.27;52.00
62789;BME280;66401;42.016;21.454;2023-06-04T10:43:49;98577.78;;;25.50;50.63
62789;BME280;66401;42.016;21.454;2023-06-04T10:46:16;98577.78;;;25.50;49.16
62789;BME280;66401;42.016;21.454;2023-06-04T10:48:49;98546.50;;;25.27;48.84
62789;BME280;66401;42.016;21.454;2023-06-04T10:51:16;98553.38;;;25.04;50.01
62789;BME280;66401;42.016;21.454;2023-06-04T10:53:42;98561.38;;;24.99;49.73
62789;BME280;66401;42.016;21.454;2023-06-04T10:56:08;98542.44;;;25.34;50.44
62789;BME280;66401;42.016;21.454;2023-06-04T10:58:36;98553.97;;;25.59;50.12
62789;BME280;66401;42.016;21.454;2023-06-04T11:01:02;98524.78;;;25.44;48.73
62789;BME280;66401;42.016;21.454;2023-06-04T11:03:37;98546.47;;;25.61;48.03
62789;BME280;66401;42.016;21.454;2023-06-04T11:06:14;98558.81;;;25.52;48.44
62789;BME280;66401;42.016;21.454;2023-06-04T11:08:41;98513.91;;;25.06;48.99
62789;BME280;66401;42.016;21.454;2023-06-04T11:11:16;98540.88;;;25.33;48.64
62789;BME280;66401;42.016;21.454;2023-06-04T11:13:42;98489.75;;;25.26;48.03
62789;BME280;66401;42.016;21.454;2023-06-04T11:16:16;98526.16;;;25.07;47.08
62789;BME280;66401;42.016;21.454;2023-06-04T11:18:42;98527.34;;;25.25;49.07
62789;BME280;66401;42.016;21.454;2023-06-04T11:21:08;98503.63;;;25.23;48.50
62789;BME280;66401;42.016;21.454;2023-06-04T11:23:33;98537.31;;;26.15;47.52
62789;BME280;66401;42.016;21.454;2023-06-04T11:26:00;98538.06;;;26.20;47.90
62789;BME280;66401;42.016;21.454;2023-06-04T11:28:29;98530.44;;;26.51;46.60
62789;BME280;66401;42.016;21.454;2023-06-04T11:30:59;98521.44;;;26.47;46.02
62789;BME280;66401;42.016;21.454;2023-06-04T11:33:28;98523.81;;;27.00;45.02
62789;BME280;66401;42.016;21.454;2023-06-04T11:35:54;98498.00;;;26.44;45.49
62789;BME280;66401;42.016;21.454;2023-06-04T11:38:19;98479.25;;;23.78;49.58
62789;BME280;66401;42.016;21.454;2023-06-04T11:40:55;98501.19;;;24.14;52.47
62789;BME280;66401;42.016;21.454;2023-06-04T11:43:23;98520.13;;;24.57;51.30
62789;BME280;66401;42.016;21.454;2023-06-04T11:45:49;98509.97;;;24.10;49.73
62789;BME280;66401;42.016;21.454;2023-06-04T11:48:16;98483.53;;;24.28;50.68
62789;BME280;66401;42.016;21.454;2023-06-04T11:50:42;98507.00;;;25.05;48.52
62789;BME280;66401;42.016;21.454;2023-06-04T11:53:07;98507.63;;;25.79;48.75
62789;BME280;66401;42.016;21.454;2023-06-04T11:55:49;98502.19;;;25.60;45.99
62789;BME280;66401;42.016;21.454;2023-06-04T11:58:15;98506.72;;;25.35;48.48
62789;BME280;66401;42.016;21.454;2023-06-04T12:00:41;98488.81;;;25.12;46.05
62789;BME280;66401;42.016;21.454;2023-06-04T12:03:06;98510.81;;;25.52;46.72
62789;BME280;66401;42.016;21.454;2023-06-04T12:05:32;98491.88;;;25.53;47.25
62789;BME280;66401;42.016;21.454;2023-06-04T12:08:08;98516.91;;;24.60;49.97
62789;BME280;66401;42.016;21.454;2023-06-04T12:10:42;98475.56;;;25.31;48.79
62789;BME280;66401;42.016;21.454;2023-06-04T12:13:08;98498.63;;;25.69;48.14
62789;BME280;66401;42.016;21.454;2023-06-04T12:15:35;98502.47;;;24.71;51.00
62789;BME280;66401;42.016;21.454;2023-06-04T12:18:00;98509.09;;;24.35;52.19
62789;BME280;66401;42.016;21.454;2023-06-04T12:20:39;98482.28;;;23.36;53.23
62789;BME280;66401;42.016;21.454;2023-06-04T12:23:06;98490.06;;;24.02;53.44
62789;BME280;66401;42.016;21.454;2023-06-04T12:25:32;98515.00;;;24.66;51.40
62789;BME280;66401;42.016;21.454;2023-06-04T12:27:58;98510.44;;;24.22;50.84
62789;BME280;66401;42.016;21.454;2023-06-04T12:30:35;98503.88;;;24.93;50.20
62789;BME280;66401;42.016;21.454;2023-06-04T12:33:01;98524.56;;;25.64;49.35
62789;BME280;66401;42.016;21.454;2023-06-04T12:35:27;98487.06;;;25.79;47.38
62789;BME280;66401;42.016;21.454;2023-06-04T12:37:52;98498.09;;;26.15;48.00
62789;BME280;66401;42.016;21.454;2023-06-04T12:40:18;98498.31;;;26.19;46.95
62789;BME280;66401;42.016;21.454;2023-06-04T12:42:43;98487.06;;;25.79;48.16
62789;BME280;66401;42.016;21.454;2023-06-04T12:45:09;98475.03;;;25.05;49.72
62789;BME280;66401;42.016;21.454;2023-06-04T12:47:36;98507.19;;;25.43;48.50
62789;BME280;66401;42.016;21.454;2023-06-04T12:50:01;98474.03;;;25.25;48.01
62789;BME280;66401;42.016;21.454;2023-06-04T12:52:28;98497.00;;;25.74;47.03
62789;BME280;66401;42.016;21.454;2023-06-04T12:54:53;98498.25;;;25.81;47.66